Time;durP1;ratioP1;P1;durP2;ratioP2;P2;SDS_P1;SDS_P2;PMS_P1;PMS_P2;Temp;Humidity;BMP_temperature;BMP_pressure;BME280_temperature;BME280_humidity;BME280_pressure;Samples;Min_cycle;Max_cycle;Signal;HPM_P1;HPM_P2
2023/01/10 00:01:58;;;;;;;33.33;15.83;;;;;;;7.12;100.00;100719.16;5009118;28;20199;-76
2023/01/10 00:04:28;;;;;;;33.47;15.30;;;;;;;7.09;100.00;100721.59;4990785;28;20196;-76
2023/01/10 00:06:54;;;;;;;25.20;13.27;;;;;;;7.10;100.00;100728.41;5010699;28;20307;-76
2023/01/10 00:09:20;;;;;;;29.03;13.40;;;;;;;7.09;100.00;100731.78;4998026;28;20298;-77
2023/01/10 00:14:32;;;;;;;26.77;12.30;;;;;;;7.13;100.00;100741.25;4996903;28;20202;-77
2023/01/10 00:16:57;;;;;;;28.20;12.77;;;;;;;7.14;100.00;100745.53;4990698;28;20246;-77
2023/01/10 00:19:23;;;;;;;29.90;12.00;;;;;;;7.14;100.00;100747.22;4989571;28;20230;-76
2023/01/10 00:21:48;;;;;;;29.07;12.50;;;;;;;7.13;100.00;100748.00;4991924;28;20192;-76
2023/01/10 00:24:21;;;;;;;24.23;12.50;;;;;;;7.11;100.00;100750.53;4995396;28;20188;-78
2023/01/10 00:26:52;;;;;;;23.03;12.27;;;;;;;7.13;100.00;100755.66;4974702;28;20310;-76
2023/01/10 00:29:24;;;;;;;24.00;11.60;;;;;;;7.11;100.00;100758.19;5007643;28;20226;-77
2023/01/10 00:31:50;;;;;;;23.60;10.93;;;;;;;7.11;100.00;100758.19;4980745;28;20243;-77
2023/01/10 00:34:16;;;;;;;30.77;12.37;;;;;;;7.11;100.00;100760.72;5002771;28;20230;-77
2023/01/10 00:36:41;;;;;;;27.33;11.93;;;;;;;7.12;100.00;100766.66;4991181;28;20219;-76
2023/01/10 00:39:09;;;;;;;23.87;10.00;;;;;;;7.12;100.00;100769.19;4987081;28;20227;-76
2023/01/10 00:44:19;;;;;;;21.03;10.77;;;;;;;7.11;100.00;100781.09;4998241;28;20609;-77
2023/01/10 00:46:44;;;;;;;27.17;10.70;;;;;;;7.11;100.00;100772.56;4995986;28;20270;-78
2023/01/10 00:49:12;;;;;;;20.50;9.63;;;;;;;7.11;100.00;100778.53;5002879;28;20322;-77
2023/01/10 00:51:38;;;;;;;23.73;10.77;;;;;;;7.09;100.00;100782.69;4989970;28;20206;-76
2023/01/10 00:54:03;;;;;;;23.83;10.17;;;;;;;7.07;100.00;100794.53;4973732;28;20191;-77
2023/01/10 00:56:29;;;;;;;24.57;9.50;;;;;;;7.08;100.00;100793.69;4997342;28;20218;-76
2023/01/10 00:58:54;;;;;;;22.30;9.83;;;;;;;7.09;100.00;100800.53;5003431;28;20218;-76
2023/01/10 01:01:20;;;;;;;19.43;9.97;;;;;;;7.10;100.00;100812.41;5006336;28;20194;-76
2023/01/10 01:03:46;;;;;;;22.23;9.53;;;;;;;7.08;100.00;100814.06;4998611;28;20214;-77
2023/01/10 01:06:11;;;;;;;28.30;9.40;;;;;;;7.07;100.00;100825.06;4997390;28;20301;-77
2023/01/10 01:08:37;;;;;;;21.73;9.97;;;;;;;7.07;100.00;100825.06;5009532;28;20305;-77
2023/01/10 01:11:02;;;;;;;22.80;8.57;;;;;;;7.04;100.00;100832.59;4991384;28;20211;-77
2023/01/10 01:13:28;;;;;;;21.30;8.57;;;;;;;7.03;100.00;100830.88;5005890;28;20662;-77
2023/01/10 01:15:57;;;;;;;22.47;9.07;;;;;;;7.03;100.00;100838.50;4998744;28;20309;-77
2023/01/10 01:18:22;;;;;;;24.50;8.63;;;;;;;7.00;100.00;100847.72;4991302;28;20211;-77
2023/01/10 01:20:53;;;;;;;22.40;8.93;;;;;;;7.00;100.00;100847.72;4979759;28;20203;-76
2023/01/10 01:23:19;;;;;;;23.27;8.67;;;;;;;7.00;100.00;100858.75;4992157;28;20194;-76
2023/01/10 01:25:44;;;;;;;20.60;8.50;;;;;;;6.99;100.00;100872.31;4984128;28;20198;-78
2023/01/10 01:28:12;;;;;;;19.37;7.80;;;;;;;6.97;100.00;100873.06;5006956;28;20213;-77
2023/01/10 01:30:38;;;;;;;20.40;8.73;;;;;;;6.93;100.00;100878.88;4988234;28;20198;-76
2023/01/10 01:33:04;;;;;;;18.83;7.50;;;;;;;6.89;100.00;100888.09;4976143;28;20194;-76
2023/01/10 01:35:29;;;;;;;20.00;7.97;;;;;;;6.92;100.00;100892.41;4986323;28;20274;-77
2023/01/10 01:37:55;;;;;;;19.40;7.53;;;;;;;6.93;100.00;100899.22;4998455;28;20215;-76
2023/01/10 01:40:22;;;;;;;14.90;7.30;;;;;;;6.90;100.00;100897.44;5000381;28;20187;-76
2023/01/10 01:42:48;;;;;;;14.73;7.20;;;;;;;6.87;100.00;100916.84;4987980;28;20199;-77
2023/01/10 01:45:13;;;;;;;29.83;8.37;;;;;;;6.90;100.00;100922.00;5002661;28;20187;-77
2023/01/10 01:47:57;;;;;;;18.40;7.57;;;;;;;6.90;100.00;100930.53;4991436;28;20191;-76
2023/01/10 01:50:32;;;;;;;22.87;7.97;;;;;;;6.87;100.00;100938.03;5012540;28;20191;-76
2023/01/10 01:53:01;;;;;;;20.23;8.20;;;;;;;6.88;100.00;100941.47;4995604;28;20661;-77
2023/01/10 01:55:31;;;;;;;21.20;7.60;;;;;;;6.89;100.00;100946.63;5002338;28;20204;-78
2023/01/10 01:58:00;;;;;;;19.73;8.17;;;;;;;6.85;100.00;100947.31;4991322;28;20281;-77
2023/01/10 02:00:26;;;;;;;21.83;8.70;;;;;;;6.84;100.00;100952.34;5008733;28;20209;-76
2023/01/10 02:02:55;;;;;;;23.37;8.17;;;;;;;6.83;100.00;100951.50;5016945;28;20206;-77
2023/01/10 02:05:22;;;;;;;13.57;7.53;;;;;;;6.80;100.00;100945.41;5010659;28;20199;-76
2023/01/10 02:07:53;;;;;;;17.60;8.73;;;;;;;6.73;100.00;100957.03;4998139;28;20191;-75
2023/01/10 02:10:22;;;;;;;17.33;8.30;;;;;;;6.60;100.00;100954.91;5008646;28;20210;-76
2023/01/10 02:12:50;;;;;;;19.90;8.00;;;;;;;6.53;100.00;100955.47;4996682;28;20199;-77
2023/01/10 02:15:17;;;;;;;16.67;7.60;;;;;;;6.51;100.00;100966.38;4998334;28;20191;-77
2023/01/10 02:17:45;;;;;;;23.70;9.10;;;;;;;6.54;100.00;100969.06;5002720;28;20636;-76
2023/01/10 02:20:12;;;;;;;22.17;9.60;;;;;;;6.56;100.00;100980.16;4995721;28;20283;-76
2023/01/10 02:22:52;;;;;;;22.83;8.77;;;;;;;6.54;100.00;100982.63;4999769;28;20277;-77
2023/01/10 02:25:42;;;;;;;21.73;8.93;;;;;;;6.54;100.00;100981.78;5002193;28;20187;-76
2023/01/10 02:28:20;;;;;;;20.83;9.80;;;;;;;6.53;100.00;100982.56;5005285;28;20215;-76
2023/01/10 02:31:09;;;;;;;20.73;9.30;;;;;;;6.54;100.00;100989.41;4995073;28;20249;-77
2023/01/10 02:33:43;;;;;;;21.33;9.67;;;;;;;6.56;100.00;100987.78;5009983;28;20613;-77
2023/01/10 02:36:14;;;;;;;24.87;10.43;;;;;;;6.54;100.00;100991.94;5001267;28;20218;-77
2023/01/10 02:38:55;;;;;;;19.23;11.43;;;;;;;6.53;100.00;100995.28;4996622;28;20829;-76
2023/01/10 02:41:43;;;;;;;18.90;10.37;;;;;;;6.53;100.00;101002.91;4992377;28;20207;-77
2023/01/10 02:44:20;;;;;;;25.63;11.80;;;;;;;6.51;100.00;100994.38;4999286;28;20196;-78
2023/01/10 02:46:48;;;;;;;24.07;12.13;;;;;;;6.52;100.00;101001.19;5006088;28;20201;-77
2023/01/10 02:49:13;;;;;;;22.57;11.60;;;;;;;6.50;100.00;101005.34;4991068;28;20222;-76
2023/01/10 02:51:38;;;;;;;23.20;12.30;;;;;;;6.50;100.00;101024.00;5012166;28;20194;-77
2023/01/10 02:54:17;;;;;;;20.53;11.00;;;;;;;6.50;100.00;101021.47;5002709;28;20183;-75
2023/01/10 02:56:48;;;;;;;19.67;11.87;;;;;;;6.50;100.00;101023.16;5014014;28;20297;-77
2023/01/10 02:59:22;;;;;;;21.93;12.60;;;;;;;6.46;100.00;101021.31;4990893;28;20215;-76
2023/01/10 03:02:07;;;;;;;26.10;13.27;;;;;;;6.48;100.00;101028.19;5010836;28;20197;-76
2023/01/10 03:04:38;;;;;;;29.23;13.30;;;;;;;6.47;100.00;101033.22;4988276;28;20199;-76
2023/01/10 03:07:17;;;;;;;24.97;14.10;;;;;;;6.46;100.00;101031.47;5009850;28;20191;-77
2023/01/10 03:09:54;;;;;;;21.87;13.60;;;;;;;6.46;100.00;101028.94;4992025;28;20215;-77
2023/01/10 03:12:34;;;;;;;26.33;13.23;;;;;;;6.45;100.00;101040.78;5005179;28;20195;-78
2023/01/10 03:15:03;;;;;;;22.70;13.97;;;;;;;6.41;100.00;101038.06;5004060;28;20719;-76
2023/01/10 03:17:30;;;;;;;26.33;13.53;;;;;;;6.40;100.00;101033.78;4986213;28;20219;-76
2023/01/10 03:19:59;;;;;;;28.93;14.07;;;;;;;6.39;100.00;101042.22;4991900;28;20325;-78
2023/01/10 03:22:29;;;;;;;24.03;13.97;;;;;;;6.36;100.00;101045.50;4991326;28;20202;-77
2023/01/10 03:24:59;;;;;;;30.27;13.60;;;;;;;6.37;100.00;101057.44;4996048;28;20247;-77
2023/01/10 03:27:38;;;;;;;29.47;13.37;;;;;;;6.36;100.00;101060.75;5004303;28;20266;-77
2023/01/10 03:30:13;;;;;;;22.10;12.27;;;;;;;6.31;100.00;101066.50;5001192;28;20215;-77
2023/01/10 03:32:39;;;;;;;24.33;12.37;;;;;;;6.34;100.00;101064.94;4988747;28;20205;-77
2023/01/10 03:35:05;;;;;;;23.60;12.33;;;;;;;6.36;100.00;101065.84;4989247;28;20188;-77
2023/01/10 03:37:53;;;;;;;25.43;10.97;;;;;;;6.35;100.00;101073.44;4997818;28;20284;-77
2023/01/10 03:40:36;;;;;;;23.17;10.63;;;;;;;6.32;100.00;101078.38;5004491;28;20203;-77
2023/01/10 03:46:01;;;;;;;27.20;10.20;;;;;;;6.20;100.00;101083.84;4989833;28;20207;-77
2023/01/10 03:48:35;;;;;;;18.43;9.63;;;;;;;6.15;100.00;101095.50;5004549;28;20214;-77
2023/01/10 03:51:04;;;;;;;18.30;10.10;;;;;;;6.13;100.00;101102.19;5004388;28;20201;-78
2023/01/10 03:53:30;;;;;;;22.53;9.60;;;;;;;6.07;100.00;101095.97;5010608;28;20191;-77
2023/01/10 03:55:56;;;;;;;19.93;9.30;;;;;;;6.04;100.00;101106.03;4998170;28;20226;-78
2023/01/10 03:58:21;;;;;;;18.73;8.63;;;;;;;5.99;100.00;101112.59;5003744;28;20302;-76
2023/01/10 04:00:47;;;;;;;15.73;7.60;;;;;;;5.96;100.00;101123.53;4987916;28;20194;-77
2023/01/10 04:03:14;;;;;;;16.33;8.07;;;;;;;5.91;100.00;101122.47;5000531;28;20388;-77
2023/01/10 04:05:40;;;;;;;17.67;7.27;;;;;;;5.87;100.00;101120.59;4981603;28;20535;-77
2023/01/10 04:08:06;;;;;;;15.30;6.37;;;;;;;5.86;100.00;101128.13;4989134;28;20218;-76
2023/01/10 04:10:31;;;;;;;15.77;7.23;;;;;;;5.85;100.00;101131.50;5012840;28;20253;-76
2023/01/10 04:13:01;;;;;;;16.13;6.67;;;;;;;5.84;100.00;101140.78;5014135;28;20191;-76
2023/01/10 04:15:27;;;;;;;17.70;7.00;;;;;;;5.86;100.00;101156.97;5003939;28;20204;-76
2023/01/10 04:17:53;;;;;;;15.90;6.93;;;;;;;5.89;100.00;101159.63;5002724;28;20230;-76
2023/01/10 04:20:19;;;;;;;15.37;7.33;;;;;;;5.91;100.00;101170.75;5010087;28;20226;-76
2023/01/10 04:22:45;;;;;;;19.00;7.37;;;;;;;5.88;100.00;101167.16;4987146;28;20242;-76
2023/01/10 04:25:10;;;;;;;16.63;7.00;;;;;;;5.85;100.00;101177.22;4988872;28;20199;-76
2023/01/10 04:27:36;;;;;;;16.17;7.00;;;;;;;5.82;100.00;101172.88;4985042;28;20203;-76
2023/01/10 04:30:02;;;;;;;17.50;6.87;;;;;;;5.81;100.00;101181.28;4996218;28;20222;-77
2023/01/10 04:32:27;;;;;;;16.10;7.83;;;;;;;5.74;100.00;101180.91;4999523;28;20202;-76
2023/01/10 04:34:52;;;;;;;22.93;8.30;;;;;;;5.69;100.00;101190.00;5004229;28;20561;-77
2023/01/10 04:37:18;;;;;;;19.03;9.00;;;;;;;5.66;100.00;101187.34;4991720;28;20212;-77
2023/01/10 04:39:44;;;;;;;18.60;8.40;;;;;;;5.65;100.00;101190.66;4998497;28;20218;-76
2023/01/10 04:42:09;;;;;;;19.23;8.23;;;;;;;5.67;100.00;101192.47;4986107;28;20245;-76
2023/01/10 04:44:35;;;;;;;16.67;8.23;;;;;;;5.70;100.00;101200.25;4988288;28;20581;-77
2023/01/10 04:47:00;;;;;;;17.10;7.60;;;;;;;5.71;100.00;101212.13;4984198;28;20195;-78
2023/01/10 04:49:26;;;;;;;22.03;8.63;;;;;;;5.71;100.00;101219.75;4989781;28;20215;-76
2023/01/10 04:51:51;;;;;;;15.33;7.37;;;;;;;5.74;100.00;101216.47;5000053;28;20207;-76
2023/01/10 04:54:21;;;;;;;22.77;7.73;;;;;;;5.74;100.00;101219.91;5002226;28;20265;-77
2023/01/10 04:56:46;;;;;;;21.93;8.50;;;;;;;5.75;100.00;101220.78;5009304;28;20222;-76
2023/01/10 04:59:12;;;;;;;19.13;8.37;;;;;;;5.76;100.00;101230.13;4992886;28;20228;-77
2023/01/10 05:01:38;;;;;;;18.27;7.43;;;;;;;5.76;100.00;101231.00;4989924;28;20195;-76
2023/01/10 05:04:04;;;;;;;15.03;6.93;;;;;;;5.78;100.00;101237.03;5000549;28;20540;-76
2023/01/10 05:06:30;;;;;;;17.73;6.97;;;;;;;5.80;100.00;101249.81;4987473;28;20198;-76
2023/01/10 05:08:56;;;;;;;13.27;6.80;;;;;;;5.83;100.00;101242.31;5006198;28;20361;-77
2023/01/10 05:11:22;;;;;;;16.77;7.10;;;;;;;5.83;100.00;101249.94;4991244;28;20188;-76
2023/01/10 05:13:47;;;;;;;15.70;6.83;;;;;;;5.83;100.00;101252.50;4984648;28;20286;-76
2023/01/10 05:16:13;;;;;;;18.53;7.20;;;;;;;5.80;100.00;101255.75;5008569;28;20211;-75
2023/01/10 05:18:38;;;;;;;23.63;7.30;;;;;;;5.80;100.00;101254.88;5004122;28;20211;-77
2023/01/10 05:21:07;;;;;;;15.77;7.03;;;;;;;5.83;100.00;101265.19;5004465;28;20202;-76
2023/01/10 05:23:32;;;;;;;21.13;7.37;;;;;;;5.83;100.00;101268.63;5002684;28;20195;-76
2023/01/10 05:26:05;;;;;;;15.07;6.80;;;;;;;5.82;100.00;101266.88;4991042;28;20194;-76
2023/01/10 05:28:31;;;;;;;20.20;7.57;;;;;;;5.82;100.00;101271.97;5009168;28;20214;-77
2023/01/10 05:30:56;;;;;;;19.67;7.70;;;;;;;5.83;100.00;101275.34;4990030;28;20217;-76
2023/01/10 05:33:22;;;;;;;21.70;8.03;;;;;;;5.80;100.00;101286.25;4994113;28;20195;-76
2023/01/10 05:35:47;;;;;;;23.07;8.23;;;;;;;5.80;100.00;101286.25;4993816;28;20195;-76
2023/01/10 05:38:12;;;;;;;18.33;7.47;;;;;;;5.78;100.00;101294.56;5000394;28;20215;-76
2023/01/10 05:40:38;;;;;;;16.50;7.23;;;;;;;5.75;100.00;101297.00;4980595;28;20197;-76
2023/01/10 05:43:03;;;;;;;17.67;6.63;;;;;;;5.71;100.00;101301.03;4994508;28;20309;-76
2023/01/10 05:45:29;;;;;;;19.30;7.20;;;;;;;5.69;100.00;101297.56;5005559;28;20271;-76
2023/01/10 05:47:54;;;;;;;21.83;7.87;;;;;;;5.69;100.00;101306.84;4991566;28;20207;-77
2023/01/10 05:50:20;;;;;;;18.73;7.17;;;;;;;5.68;100.00;101308.53;5012281;28;20535;-76
2023/01/10 05:52:45;;;;;;;21.33;7.83;;;;;;;5.68;100.00;101313.63;4998257;28;20200;-76
2023/01/10 05:55:11;;;;;;;17.30;6.83;;;;;;;5.68;100.00;101315.28;4993326;28;20227;-77
2023/01/10 05:57:36;;;;;;;20.30;7.30;;;;;;;5.68;100.00;101320.38;5014089;28;20590;-77
2023/01/10 06:00:03;;;;;;;16.63;6.73;;;;;;;5.67;100.00;101328.78;4998841;28;20253;-77
2023/01/10 06:02:36;;;;;;;19.23;6.73;;;;;;;5.64;100.00;101326.09;5004806;28;20216;-76
2023/01/10 06:05:02;;;;;;;21.27;6.77;;;;;;;5.59;100.00;101332.63;5011699;28;20195;-76
2023/01/10 06:07:27;;;;;;;24.70;7.30;;;;;;;5.54;100.00;101339.16;5013926;28;20219;-76
2023/01/10 06:09:53;;;;;;;17.60;7.17;;;;;;;5.52;100.00;101343.31;4988681;28;20273;-77
2023/01/10 06:12:19;;;;;;;16.60;7.13;;;;;;;5.47;100.00;101355.78;5005963;28;20194;-76
2023/01/10 06:14:45;;;;;;;18.30;6.33;;;;;;;5.47;100.00;101354.91;5005862;28;20195;-77
2023/01/10 06:17:10;;;;;;;20.97;7.27;;;;;;;5.43;100.00;101355.59;4978319;28;20436;-76
2023/01/10 06:19:36;;;;;;;21.90;7.10;;;;;;;5.45;100.00;101359.06;4979237;28;20220;-76
2023/01/10 06:22:04;;;;;;;25.20;7.17;;;;;;;5.43;100.00;101366.59;5001244;28;20199;-77
2023/01/10 06:24:30;;;;;;;16.93;6.87;;;;;;;5.40;100.00;101369.00;4995763;28;20542;-76
2023/01/10 06:26:55;;;;;;;26.57;7.83;;;;;;;5.38;100.00;101378.19;5008608;28;20253;-78
2023/01/10 06:29:22;;;;;;;19.03;7.80;;;;;;;5.38;100.00;101375.66;4997673;28;20233;-76
2023/01/10 06:31:47;;;;;;;23.90;8.00;;;;;;;5.38;100.00;101387.50;5011236;28;20193;-76
2023/01/10 06:34:13;;;;;;;23.63;8.57;;;;;;;5.35;100.00;101385.66;4988849;28;20191;-77
2023/01/10 06:36:38;;;;;;;25.97;7.97;;;;;;;5.32;100.00;101392.25;4995281;28;20210;-78
2023/01/10 06:39:03;;;;;;;21.37;7.73;;;;;;;5.30;100.00;101399.78;5003214;28;20218;-76
2023/01/10 06:41:29;;;;;;;18.60;7.60;;;;;;;5.30;100.00;101398.94;5013505;28;20227;-77
2023/01/10 06:43:54;;;;;;;18.27;7.27;;;;;;;5.25;100.00;101396.16;5000063;28;20194;-77
2023/01/10 06:46:20;;;;;;;22.73;7.53;;;;;;;5.22;100.00;101406.19;5006034;28;20229;-77
2023/01/10 06:48:46;;;;;;;20.73;7.33;;;;;;;5.21;100.00;101406.09;5002441;28;20214;-76
2023/01/10 06:51:13;;;;;;;21.93;7.37;;;;;;;5.16;100.00;101418.53;5001264;28;20195;-76
2023/01/10 06:53:39;;;;;;;20.37;7.93;;;;;;;5.15;100.00;101418.50;5006184;28;20199;-76
2023/01/10 06:56:05;;;;;;;23.07;7.77;;;;;;;5.14;100.00;101419.25;4989135;28;20208;-76
2023/01/10 06:58:31;;;;;;;20.60;7.23;;;;;;;5.12;100.00;101418.34;5004357;28;20223;-76
2023/01/10 07:00:57;;;;;;;22.03;7.43;;;;;;;5.10;100.00;101430.94;4988537;28;20237;-75
2023/01/10 07:03:23;;;;;;;26.10;8.30;;;;;;;5.07;100.00;101437.53;4989159;28;20763;-76
2023/01/10 07:05:48;;;;;;;23.43;8.00;;;;;;;5.02;100.00;101436.44;5012417;28;20668;-76
2023/01/10 07:08:14;;;;;;;23.80;8.27;;;;;;;5.00;100.00;101445.63;4987904;28;20215;-76
2023/01/10 07:10:40;;;;;;;23.17;8.03;;;;;;;4.99;100.00;101447.31;5003454;28;20193;-78
2023/01/10 07:13:06;;;;;;;18.50;7.27;;;;;;;5.00;100.00;101459.19;5010626;28;20199;-77
2023/01/10 07:15:32;;;;;;;18.20;7.53;;;;;;;5.03;100.00;101459.34;4992585;28;20205;-76
2023/01/10 07:17:57;;;;;;;28.17;8.17;;;;;;;5.09;100.00;101474.88;5011654;28;20211;-77
2023/01/10 07:20:23;;;;;;;21.77;7.80;;;;;;;5.16;100.00;101476.06;5002325;28;20226;-77
2023/01/10 07:22:56;;;;;;;17.17;7.47;;;;;;;5.15;100.00;101474.34;5009075;28;20194;-77
2023/01/10 07:25:24;;;;;;;25.67;7.60;;;;;;;5.16;100.00;101481.16;5008929;28;20560;-77
2023/01/10 07:27:49;;;;;;;22.57;8.07;;;;;;;5.17;100.00;101477.81;5015192;28;20258;-76
2023/01/10 07:30:15;;;;;;;18.37;7.20;;;;;;;5.17;100.00;101471.06;5007740;28;20309;-77
2023/01/10 07:32:40;;;;;;;21.90;7.03;;;;;;;5.21;100.00;101477.16;5009172;28;20210;-76
2023/01/10 07:35:06;;;;;;;24.83;7.50;;;;;;;5.22;100.00;101472.19;4982391;28;20219;-78
2023/01/10 07:37:32;;;;;;;26.43;7.53;;;;;;;5.25;100.00;101474.84;5010068;28;20221;-77
2023/01/10 07:39:58;;;;;;;20.80;8.07;;;;;;;5.26;100.00;101479.16;4977474;28;20214;-76
2023/01/10 07:42:23;;;;;;;20.00;6.83;;;;;;;5.25;100.00;101482.47;5003159;28;20213;-76
2023/01/10 07:44:49;;;;;;;24.80;7.30;;;;;;;5.29;100.00;101486.91;5007650;28;20193;-76
2023/01/10 07:47:14;;;;;;;18.53;6.93;;;;;;;5.31;100.00;101487.00;4998677;28;20191;-76
2023/01/10 07:49:40;;;;;;;27.30;7.43;;;;;;;5.33;100.00;101493.00;4989515;28;20631;-77
2023/01/10 07:52:07;;;;;;;14.77;6.33;;;;;;;5.37;100.00;101497.44;4995271;28;20282;-77
2023/01/10 07:54:34;;;;;;;18.90;6.27;;;;;;;5.39;100.00;101485.72;4982705;28;20191;-76
2023/01/10 07:57:00;;;;;;;21.77;6.33;;;;;;;5.39;100.00;101490.78;5003491;28;20227;-77
2023/01/10 07:59:26;;;;;;;18.00;6.97;;;;;;;5.41;100.00;101505.31;4989245;28;20970;-76
2023/01/10 08:01:52;;;;;;;22.70;6.63;;;;;;;5.42;100.00;101499.44;4983920;28;20206;-76
2023/01/10 08:04:18;;;;;;;18.90;6.83;;;;;;;5.47;100.00;101508.13;4981587;28;20188;-77
2023/01/10 08:06:44;;;;;;;24.90;6.70;;;;;;;5.48;100.00;101492.09;5011181;28;20194;-76
2023/01/10 08:09:09;;;;;;;21.13;6.73;;;;;;;5.50;100.00;101493.06;5002191;28;20215;-76
2023/01/10 08:11:34;;;;;;;21.20;6.33;;;;;;;5.52;100.00;101499.09;4985308;28;20191;-75
2023/01/10 08:14:00;;;;;;;22.37;7.20;;;;;;;5.59;100.00;101495.19;5004037;28;20199;-75
2023/01/10 08:16:25;;;;;;;23.90;6.63;;;;;;;5.62;100.00;101498.75;5003942;28;20219;-78
2023/01/10 08:18:51;;;;;;;26.47;7.00;;;;;;;5.66;100.00;101498.09;4980127;28;20907;-77
2023/01/10 08:21:16;;;;;;;17.67;5.53;;;;;;;5.70;100.00;101501.66;4994680;28;20351;-76
2023/01/10 08:23:42;;;;;;;21.03;6.50;;;;;;;5.70;100.00;101500.00;5005178;28;20210;-77
2023/01/10 08:26:07;;;;;;;19.27;5.63;;;;;;;5.73;100.00;101517.06;4985092;28;20215;-76
2023/01/10 08:28:32;;;;;;;29.23;7.20;;;;;;;5.75;100.00;101512.94;4980599;28;20242;-76
2023/01/10 08:31:03;;;;;;;18.30;6.27;;;;;;;5.79;100.00;101520.78;4984010;28;20225;-77
2023/01/10 08:33:28;;;;;;;20.77;5.83;;;;;;;5.80;100.00;101527.63;4984212;28;20573;-76
2023/01/10 08:35:54;;;;;;;20.97;6.53;;;;;;;5.85;100.00;101531.25;4988123;28;20191;-75
2023/01/10 08:38:19;;;;;;;20.90;6.00;;;;;;;5.90;100.00;101532.34;4998743;28;20755;-76
2023/01/10 08:40:44;;;;;;;18.37;6.43;;;;;;;5.93;100.00;101527.44;5002079;28;20198;-76
2023/01/10 08:43:11;;;;;;;15.83;6.37;;;;;;;6.00;100.00;101538.75;4993655;28;20210;-75
2023/01/10 08:45:37;;;;;;;19.37;6.43;;;;;;;6.03;100.00;101537.22;4987810;28;20302;-75
2023/01/10 08:48:04;;;;;;;18.53;5.33;;;;;;;6.09;100.00;101536.66;5001781;28;20234;-76
2023/01/10 08:50:30;;;;;;;22.13;5.33;;;;;;;6.11;100.00;101538.47;4984612;28;20209;-77
2023/01/10 08:52:59;;;;;;;22.97;6.70;;;;;;;6.11;100.00;101541.03;4983269;28;20203;-76
2023/01/10 08:55:26;;;;;;;22.47;6.27;;;;;;;6.25;100.00;101536.59;4993342;28;20204;-76
2023/01/10 08:57:51;;;;;;;23.50;6.43;;;;;;;6.42;100.00;101546.78;4987076;28;20306;-75
2023/01/10 09:00:17;;;;;;;20.17;6.00;;;;;;;6.54;100.00;101560.03;4986681;28;20270;-76
2023/01/10 09:02:42;;;;;;;23.77;6.20;;;;;;;6.31;100.00;101570.81;5008399;28;20829;-76
2023/01/10 09:05:09;;;;;;;21.60;6.77;;;;;;;6.24;100.00;101565.34;4994347;28;20808;-76
2023/01/10 09:07:35;;;;;;;18.10;6.60;;;;;;;6.24;100.00;101568.78;4986686;28;20906;-77
2023/01/10 09:10:01;;;;;;;19.40;6.67;;;;;;;6.21;100.00;101563.53;4993627;28;20198;-76
2023/01/10 09:15:11;;;;;;;21.80;7.27;;;;;;;6.22;100.00;101559.34;5010045;28;20206;-78
2023/01/10 09:17:37;;;;;;;15.77;7.00;;;;;;;6.23;100.00;101549.25;4980838;28;20330;-75
2023/01/10 09:20:05;;;;;;;20.70;6.83;;;;;;;6.26;100.00;101544.28;5000738;28;20191;-75
2023/01/10 09:22:31;;;;;;;14.83;6.50;;;;;;;6.37;100.00;101534.63;4988309;28;20702;-75
2023/01/10 09:24:57;;;;;;;22.83;7.13;;;;;;;6.39;100.00;101541.53;5007739;28;20226;-75
2023/01/10 09:27:22;;;;;;;21.07;7.63;;;;;;;6.54;100.00;101551.56;5006614;28;20183;-77
2023/01/10 09:29:47;;;;;;;18.47;6.67;;;;;;;6.61;100.00;101545.94;5007106;28;20679;-76
2023/01/10 09:32:13;;;;;;;17.80;6.97;;;;;;;6.73;100.00;101549.06;4983323;28;20265;-76
2023/01/10 09:34:39;;;;;;;25.57;8.00;;;;;;;6.81;100.00;101555.38;4993453;28;20188;-75
2023/01/10 09:37:04;;;;;;;19.90;7.00;;;;;;;6.78;100.00;101557.78;5005264;28;20297;-77
2023/01/10 09:39:31;;;;;;;15.53;6.90;;;;;;;6.77;100.00;101566.22;5007132;28;20218;-76
2023/01/10 09:42:19;;;;;;;14.60;6.07;;;;;;;6.78;100.00;101571.34;5003896;28;20199;-76
2023/01/10 09:44:48;;;;;;;18.90;7.43;;;;;;;6.92;100.00;101567.78;4990453;28;20206;-76
2023/01/10 09:47:21;;;;;;;22.30;7.20;;;;;;;6.76;100.00;101567.88;5000352;28;20196;-77
2023/01/10 09:50:02;;;;;;;20.67;7.40;;;;;;;6.79;100.00;101593.47;4998756;28;20265;-76
2023/01/10 09:52:44;;;;;;;21.83;7.93;;;;;;;6.84;100.00;101611.50;5002487;28;20241;-76
2023/01/10 09:55:32;;;;;;;26.23;7.40;;;;;;;6.74;100.00;101607.66;5005283;28;20195;-76
2023/01/10 09:58:02;;;;;;;20.60;8.33;;;;;;;6.63;100.00;101616.44;5003589;28;20216;-76
2023/01/10 10:00:56;;;;;;;22.07;6.93;;;;;;;6.63;100.00;101624.09;5003785;28;20566;-76
2023/01/10 10:03:35;;;;;;;21.57;7.50;;;;;;;6.60;100.00;101634.13;5008683;28;20195;-76
2023/01/10 10:06:02;;;;;;;19.40;8.00;;;;;;;6.58;100.00;101624.69;5012534;28;20198;-77
2023/01/10 10:08:27;;;;;;;18.60;6.90;;;;;;;6.68;100.00;101619.22;5005337;28;20222;-77
2023/01/10 10:11:15;;;;;;;19.73;7.77;;;;;;;6.69;100.00;101620.97;4987312;28;20195;-78
2023/01/10 10:13:53;;;;;;;18.30;8.10;;;;;;;6.67;100.00;101620.88;4995231;28;20211;-79
2023/01/10 10:17:09;;;;;;;27.20;8.70;;;;;;;6.65;100.00;101622.50;4998842;28;20703;-78
2023/01/10 10:19:55;;;;;;;18.73;7.27;;;;;;;6.64;100.00;101628.38;4974685;28;20229;-78
2023/01/10 10:22:36;;;;;;;18.70;7.40;;;;;;;6.63;100.00;101621.53;5005702;28;20250;-79
2023/01/10 10:25:15;;;;;;;21.67;8.37;;;;;;;6.64;100.00;101625.81;4987569;28;20342;-78
2023/01/10 10:27:57;;;;;;;16.50;8.13;;;;;;;6.70;100.00;101622.69;4980580;28;20218;-78
2023/01/10 10:30:44;;;;;;;25.03;7.33;;;;;;;6.79;100.00;101618.94;5001687;28;20891;-75
2023/01/10 10:33:32;;;;;;;20.60;7.23;;;;;;;7.14;100.00;101616.31;4995474;28;20195;-76
2023/01/10 10:36:23;;;;;;;21.87;7.57;;;;;;;7.10;100.00;101616.13;5007945;28;20269;-76
2023/01/10 10:38:51;;;;;;;20.17;7.40;;;;;;;7.07;100.00;101621.94;4971474;28;20223;-76
2023/01/10 10:41:41;;;;;;;26.23;8.47;;;;;;;6.95;100.00;101612.88;5010906;28;20641;-78
2023/01/10 10:44:38;;;;;;;18.60;7.30;;;;;;;6.94;100.00;101612.00;4997718;28;20190;-75
2023/01/10 10:47:14;;;;;;;17.57;7.50;;;;;;;6.92;100.00;101621.25;5002072;28;20219;-76
2023/01/10 10:49:51;;;;;;;20.40;7.73;;;;;;;6.93;100.00;101614.47;4997856;28;20636;-76
2023/01/10 10:52:25;;;;;;;18.90;7.50;;;;;;;6.91;100.00;101613.53;4994187;28;20183;-76
2023/01/10 10:54:52;;;;;;;24.50;7.63;;;;;;;6.89;100.00;101618.56;5001076;28;20187;-76
2023/01/10 10:57:20;;;;;;;24.00;9.60;;;;;;;6.90;100.00;101627.03;5012272;28;20206;-76
2023/01/10 10:59:47;;;;;;;26.13;8.63;;;;;;;6.90;100.00;101621.94;5002785;28;20235;-76
2023/01/10 11:02:40;;;;;;;26.43;8.83;;;;;;;6.89;100.00;101625.31;5008756;28;20654;-76
2023/01/10 11:05:16;;;;;;;24.77;7.30;;;;;;;6.88;100.00;101618.47;4985934;28;20597;-75
2023/01/10 11:07:43;;;;;;;18.30;8.27;;;;;;;6.90;100.00;101625.38;4982933;28;20188;-74
2023/01/10 11:12:50;;;;;;;21.23;7.90;;;;;;;6.87;100.00;101630.31;4993393;28;20245;-74
2023/01/10 11:15:45;;;;;;;22.23;8.30;;;;;;;6.93;100.00;101628.06;5012832;28;20245;-74
2023/01/10 11:18:19;;;;;;;21.87;7.67;;;;;;;6.89;100.00;101636.38;4995293;28;20239;-75
2023/01/10 11:20:59;;;;;;;17.93;7.63;;;;;;;6.89;100.00;101645.66;4997390;28;20195;-75
2023/01/10 11:23:47;;;;;;;18.93;7.37;;;;;;;6.89;100.00;101638.03;5006170;28;20191;-75
2023/01/10 11:26:39;;;;;;;20.33;8.47;;;;;;;6.91;100.00;101632.19;4991852;28;20286;-76
2023/01/10 11:29:06;;;;;;;23.57;7.80;;;;;;;6.92;100.00;101644.16;5005921;28;20694;-74
2023/01/10 11:31:32;;;;;;;22.20;7.47;;;;;;;6.89;100.00;101648.22;5014383;28;20221;-74
2023/01/10 11:33:59;;;;;;;24.30;8.00;;;;;;;6.92;100.00;101643.28;5009008;28;20179;-77
2023/01/10 11:36:25;;;;;;;19.13;7.83;;;;;;;6.94;100.00;101647.63;5014691;28;20211;-76
2023/01/10 11:39:00;;;;;;;21.80;7.37;;;;;;;6.96;100.00;101646.00;4979739;28;20232;-76
2023/01/10 11:41:32;;;;;;;21.10;7.83;;;;;;;6.96;100.00;101648.56;4992308;28;20213;-76